Time;durP1;ratioP1;P1;durP2;ratioP2;P2;SDS_P1;SDS_P2;PMS_P1;PMS_P2;Temp;Humidity;BMP_temperature;BMP_pressure;BME280_temperature;BME280_humidity;BME280_pressure;Samples;Min_cycle;Max_cycle;Signal;HPM_P1;HPM_P2
2023/04/23 00:01:41;;;;;;;23.93;22.03;;;14.20;99.90;;;;;;5077556;28;20810;-76
2023/04/23 00:04:11;;;;;;;22.80;21.00;;;14.20;99.90;;;;;;5077287;28;20452;-76
2023/04/23 00:06:42;;;;;;;22.10;20.30;;;14.10;99.90;;;;;;5095497;28;20935;-76
2023/04/23 00:09:15;;;;;;;24.13;22.23;;;14.10;99.90;;;;;;5077294;28;20444;-76
2023/04/23 00:11:44;;;;;;;24.90;22.90;;;14.10;99.90;;;;;;5077192;28;20434;-76
2023/04/23 00:14:12;;;;;;;23.73;21.80;;;14.00;99.90;;;;;;5077694;28;20472;-76
2023/04/23 00:16:41;;;;;;;26.83;24.60;;;14.10;99.90;;;;;;5095931;28;20464;-76
2023/04/23 00:19:09;;;;;;;27.50;25.17;;;14.00;99.90;;;;;;5093921;28;20497;-76
2023/04/23 00:21:37;;;;;;;28.63;26.23;;;13.90;99.90;;;;;;5077006;28;20455;-76
2023/04/23 00:24:06;;;;;;;26.07;23.97;;;13.90;99.90;;;;;;5093677;28;21001;-76
2023/04/23 00:26:35;;;;;;;30.03;27.53;;;13.80;99.90;;;;;;5095046;28;20425;-76
2023/04/23 00:29:03;;;;;;;27.80;25.50;;;13.80;99.90;;;;;;5094653;28;20436;-76
2023/04/23 00:31:32;;;;;;;29.50;27.10;;;13.70;99.90;;;;;;5076770;28;20452;-76
2023/04/23 00:34:00;;;;;;;30.57;27.90;;;13.70;99.90;;;;;;5076541;28;20472;-76
2023/04/23 00:36:28;;;;;;;31.97;29.27;;;13.70;99.90;;;;;;5076689;28;20437;-76
2023/04/23 00:38:56;;;;;;;31.47;28.87;;;13.70;99.90;;;;;;5076837;28;20463;-76
2023/04/23 00:41:26;;;;;;;31.07;28.47;;;13.60;99.90;;;;;;5076468;28;20879;-76
2023/04/23 00:43:57;;;;;;;31.80;29.10;;;13.50;99.90;;;;;;5076284;28;20982;-76
2023/04/23 00:46:26;;;;;;;32.80;29.90;;;13.50;99.90;;;;;;5076674;28;20535;-76
2023/04/23 00:48:55;;;;;;;32.13;29.33;;;13.50;99.90;;;;;;5076270;28;20480;-76
2023/04/23 00:51:23;;;;;;;33.17;30.20;;;13.40;99.90;;;;;;5076402;28;20442;-76
2023/04/23 00:53:52;;;;;;;33.83;30.93;;;13.40;99.90;;;;;;5094299;28;20489;-76
2023/04/23 00:56:21;;;;;;;33.17;30.33;;;13.40;99.90;;;;;;5076173;28;20456;-76
2023/04/23 00:58:51;;;;;;;34.83;31.73;;;13.30;99.90;;;;;;5076242;28;20478;-76
2023/04/23 01:01:21;;;;;;;32.80;29.87;;;13.30;99.90;;;;;;5076267;28;20456;-77
2023/04/23 01:03:51;;;;;;;34.20;31.10;;;13.30;99.90;;;;;;5076160;28;20510;-76
2023/04/23 01:06:20;;;;;;;34.93;31.70;;;13.20;99.90;;;;;;5076153;28;20432;-76
2023/04/23 01:08:48;;;;;;;34.57;31.47;;;13.10;99.90;;;;;;5076095;28;20813;-76
2023/04/23 01:11:17;;;;;;;33.13;30.23;;;13.10;99.90;;;;;;5076004;28;20444;-76
2023/04/23 01:13:45;;;;;;;33.60;30.50;;;13.10;99.90;;;;;;5076033;28;20578;-76
2023/04/23 01:16:13;;;;;;;35.30;32.00;;;13.00;99.90;;;;;;5092804;28;20436;-76
2023/04/23 01:18:43;;;;;;;35.13;31.90;;;13.00;99.90;;;;;;5076008;28;20861;-76
2023/04/23 01:21:12;;;;;;;35.23;32.03;;;13.00;99.90;;;;;;5093859;28;20432;-76
2023/04/23 01:23:42;;;;;;;35.83;32.53;;;13.00;99.90;;;;;;5075593;28;20995;-76
2023/04/23 01:26:10;;;;;;;35.13;31.90;;;12.90;99.90;;;;;;5075730;28;20950;-77
2023/04/23 01:28:39;;;;;;;34.43;31.27;;;12.90;99.90;;;;;;5094261;28;20924;-76
2023/04/23 01:31:07;;;;;;;37.13;33.73;;;12.80;99.90;;;;;;5075651;28;20813;-76
2023/04/23 01:33:36;;;;;;;39.10;35.57;;;12.80;99.90;;;;;;5075689;28;20929;-77
2023/04/23 01:36:04;;;;;;;36.43;33.17;;;12.80;99.90;;;;;;5075418;28;20991;-76
2023/04/23 01:38:34;;;;;;;37.50;34.00;;;12.80;99.90;;;;;;5075581;28;20470;-77
2023/04/23 01:41:04;;;;;;;38.17;34.60;;;12.70;99.90;;;;;;5074930;28;20538;-77
2023/04/23 01:43:33;;;;;;;36.57;33.03;;;12.60;99.90;;;;;;5075269;28;20514;-76
2023/04/23 01:46:01;;;;;;;37.50;33.87;;;12.60;99.90;;;;;;5093774;28;20436;-76
2023/04/23 01:48:30;;;;;;;38.00;34.30;;;12.60;99.90;;;;;;5075524;28;20531;-76
2023/04/23 01:50:59;;;;;;;37.87;34.27;;;12.60;99.90;;;;;;5093439;28;20441;-75
2023/04/23 01:53:27;;;;;;;38.67;35.17;;;12.60;99.90;;;;;;5075549;28;20459;-76
2023/04/23 01:55:56;;;;;;;36.13;32.87;;;12.60;99.90;;;;;;5075228;28;20468;-75
2023/04/23 01:58:26;;;;;;;36.57;33.27;;;12.50;99.90;;;;;;5075317;28;20436;-76
2023/04/23 02:00:54;;;;;;;34.83;31.63;;;12.50;99.90;;;;;;5092097;28;20474;-76
2023/04/23 02:03:23;;;;;;;35.43;32.27;;;12.50;99.90;;;;;;5075403;28;20478;-76
2023/04/23 02:05:55;;;;;;;31.90;28.70;;;12.50;99.90;;;;;;5075090;28;20970;-76
2023/04/23 02:08:23;;;;;;;30.80;28.00;;;12.50;99.90;;;;;;5075129;28;20433;-76
2023/04/23 02:10:51;;;;;;;32.60;29.50;;;12.40;99.90;;;;;;5075086;28;20494;-76
2023/04/23 02:13:20;;;;;;;32.73;29.63;;;12.40;99.90;;;;;;5075162;28;20456;-75
2023/04/23 02:15:49;;;;;;;31.33;28.33;;;12.30;99.90;;;;;;5075023;28;20467;-76
2023/04/23 02:18:18;;;;;;;30.63;27.63;;;12.30;99.90;;;;;;5075001;28;20451;-75
2023/04/23 02:20:46;;;;;;;31.57;28.57;;;12.20;99.90;;;;;;5074996;28;20444;-75
2023/04/23 02:23:14;;;;;;;32.83;29.50;;;12.20;99.90;;;;;;5075159;28;20520;-75
2023/04/23 02:25:42;;;;;;;30.90;28.10;;;12.10;99.90;;;;;;5074987;28;20436;-76
2023/04/23 02:28:12;;;;;;;30.57;27.67;;;12.10;99.90;;;;;;5075102;28;20445;-75
2023/04/23 02:30:44;;;;;;;28.97;26.13;;;12.00;99.90;;;;;;5093360;28;20868;-75
2023/04/23 02:33:14;;;;;;;30.53;27.63;;;12.00;99.90;;;;;;5074847;28;20467;-75
2023/04/23 02:35:42;;;;;;;33.33;29.97;;;12.00;99.90;;;;;;5075690;28;20465;-76
2023/04/23 02:38:10;;;;;;;32.50;29.40;;;12.00;99.90;;;;;;5075648;28;20535;-76
2023/04/23 02:40:38;;;;;;;32.23;29.23;;;12.00;99.90;;;;;;5075192;28;20444;-76
2023/04/23 02:43:07;;;;;;;31.57;28.40;;;12.00;99.90;;;;;;5075095;28;20978;-76
2023/04/23 02:45:35;;;;;;;31.07;28.23;;;12.00;99.90;;;;;;5093018;28;20428;-75
2023/04/23 02:48:03;;;;;;;30.53;27.57;;;12.00;99.90;;;;;;5074857;28;20449;-76
2023/04/23 02:50:33;;;;;;;31.73;28.73;;;12.00;99.90;;;;;;5093118;28;21040;-76
2023/04/23 02:53:02;;;;;;;29.80;27.07;;;12.00;99.90;;;;;;5076207;28;20464;-75
2023/04/23 02:55:30;;;;;;;28.17;25.57;;;11.90;99.90;;;;;;5078539;28;20470;-76
2023/04/23 02:58:00;;;;;;;28.47;25.87;;;11.90;99.90;;;;;;5078545;28;20436;-76
2023/04/23 03:00:29;;;;;;;28.33;25.77;;;11.90;99.90;;;;;;5078798;28;20459;-75
2023/04/23 03:02:57;;;;;;;30.00;27.20;;;11.80;99.90;;;;;;5078773;28;20464;-76
2023/04/23 03:05:26;;;;;;;22.07;19.97;;;11.80;99.90;;;;;;5078605;28;20444;-76
2023/04/23 03:07:55;;;;;;;29.40;26.77;;;11.80;99.90;;;;;;5078584;28;20448;-76
2023/04/23 03:10:23;;;;;;;28.40;25.83;;;11.80;99.90;;;;;;5096853;28;20483;-76
2023/04/23 03:12:51;;;;;;;28.20;25.80;;;11.80;99.90;;;;;;5078222;28;20493;-76
2023/04/23 03:15:20;;;;;;;27.13;24.53;;;11.70;99.90;;;;;;5078197;28;20478;-76
2023/04/23 03:17:49;;;;;;;26.77;24.43;;;11.70;99.90;;;;;;5078402;28;20535;-76
2023/04/23 03:20:18;;;;;;;27.20;24.80;;;11.60;99.90;;;;;;5078487;28;20452;-76
2023/04/23 03:22:47;;;;;;;25.13;22.93;;;11.60;99.90;;;;;;5078067;28;20476;-75
2023/04/23 03:25:16;;;;;;;27.43;24.93;;;11.60;99.90;;;;;;5077948;28;20490;-76
2023/04/23 03:27:45;;;;;;;28.13;25.53;;;11.60;99.90;;;;;;5078057;28;20975;-76
2023/04/23 03:30:13;;;;;;;27.53;25.03;;;11.50;99.90;;;;;;5078110;28;20517;-76
2023/04/23 03:32:41;;;;;;;28.10;25.63;;;11.50;99.90;;;;;;5077898;28;20468;-76
2023/04/23 03:35:11;;;;;;;29.70;26.90;;;11.50;99.90;;;;;;5077641;28;20468;-76
2023/04/23 03:37:44;;;;;;;28.60;26.00;;;11.50;99.90;;;;;;5078136;28;20487;-76
2023/04/23 03:40:13;;;;;;;31.43;28.63;;;11.50;99.90;;;;;;5078006;28;20458;-76
2023/04/23 03:42:44;;;;;;;31.87;28.93;;;11.50;99.90;;;;;;5077825;28;20467;-76
2023/04/23 03:45:15;;;;;;;32.90;29.97;;;11.50;99.90;;;;;;5077833;28;20456;-76
2023/04/23 03:47:44;;;;;;;32.67;29.53;;;11.50;99.90;;;;;;5077574;28;20820;-76
2023/04/23 03:50:13;;;;;;;32.77;29.67;;;11.40;99.90;;;;;;5077986;28;20487;-76
2023/04/23 03:52:44;;;;;;;32.27;29.40;;;11.40;99.90;;;;;;5077472;28;20468;-75
2023/04/23 03:55:20;;;;;;;31.90;28.80;;;11.30;99.90;;;;;;5094758;28;20446;-76
2023/04/23 03:57:50;;;;;;;33.27;30.17;;;11.30;99.90;;;;;;5077407;28;20452;-76
2023/04/23 04:00:24;;;;;;;32.07;28.80;;;11.30;99.90;;;;;;5077514;28;20516;-76
2023/04/23 04:02:52;;;;;;;33.50;30.27;;;11.30;99.90;;;;;;5095605;28;20460;-76
2023/04/23 04:05:22;;;;;;;31.80;28.80;;;11.30;99.90;;;;;;5076338;28;20456;-76
2023/04/23 04:07:54;;;;;;;34.80;31.60;;;11.30;99.90;;;;;;5077232;28;20811;-76
2023/04/23 04:10:24;;;;;;;32.53;29.53;;;11.30;99.90;;;;;;5095615;28;20416;-76
2023/04/23 04:12:55;;;;;;;33.53;30.60;;;11.30;99.90;;;;;;5077022;28;20507;-76
2023/04/23 04:15:23;;;;;;;32.77;29.73;;;11.30;99.90;;;;;;5077054;28;20445;-76
2023/04/23 04:17:51;;;;;;;32.43;29.40;;;11.30;99.90;;;;;;5077048;28;20495;-76
2023/04/23 04:20:20;;;;;;;35.10;31.87;;;11.30;99.90;;;;;;5076945;28;20448;-76
2023/04/23 04:22:48;;;;;;;33.40;30.17;;;11.30;99.90;;;;;;5077208;28;20460;-76
2023/04/23 04:25:16;;;;;;;33.30;30.27;;;11.20;99.90;;;;;;5076901;28;20449;-76
2023/04/23 04:27:44;;;;;;;34.90;31.60;;;11.20;99.90;;;;;;5095049;28;20443;-76
2023/04/23 04:30:14;;;;;;;34.47;31.27;;;11.20;99.90;;;;;;5095183;28;20436;-76
2023/04/23 04:32:44;;;;;;;35.30;32.10;;;11.20;99.90;;;;;;5077031;28;20471;-76
2023/04/23 04:35:13;;;;;;;33.70;30.60;;;11.20;99.90;;;;;;5094976;28;20505;-76
2023/04/23 04:37:42;;;;;;;34.87;31.70;;;11.20;99.90;;;;;;5094826;28;20487;-75
2023/04/23 04:40:12;;;;;;;35.37;32.07;;;11.10;99.90;;;;;;5077094;28;20494;-76
2023/04/23 04:42:40;;;;;;;35.30;32.10;;;11.10;99.90;;;;;;5094897;28;20459;-76
2023/04/23 04:45:09;;;;;;;36.47;33.10;;;11.10;99.90;;;;;;5076909;28;20444;-76
2023/04/23 04:47:38;;;;;;;36.73;33.43;;;11.10;99.90;;;;;;5093434;28;20441;-76
2023/04/23 04:50:07;;;;;;;36.60;33.10;;;11.10;99.90;;;;;;5076402;28;20474;-76
2023/04/23 04:52:36;;;;;;;36.47;32.97;;;11.10;99.90;;;;;;5094556;28;20509;-76
2023/04/23 04:55:05;;;;;;;37.23;33.77;;;11.10;99.90;;;;;;5076363;28;20451;-76
2023/04/23 04:57:33;;;;;;;36.73;33.33;;;11.10;99.90;;;;;;5076310;28;20491;-75
2023/04/23 05:00:09;;;;;;;36.07;32.77;;;11.10;99.90;;;;;;5076014;28;20535;-75
2023/04/23 05:02:39;;;;;;;35.97;32.70;;;11.10;99.90;;;;;;5076267;28;20829;-75
2023/04/23 05:05:08;;;;;;;36.60;33.27;;;11.10;99.90;;;;;;5093224;28;20906;-75
2023/04/23 05:07:36;;;;;;;37.73;34.23;;;11.10;99.90;;;;;;5076450;28;20448;-74
2023/04/23 05:10:05;;;;;;;35.87;32.57;;;11.10;99.90;;;;;;5094702;28;20464;-74
2023/04/23 05:12:33;;;;;;;35.97;32.80;;;11.10;99.90;;;;;;5075884;28;20878;-75
2023/04/23 05:15:01;;;;;;;37.83;34.40;;;11.10;99.90;;;;;;5075854;28;20957;-74
2023/04/23 05:17:29;;;;;;;37.10;33.70;;;11.10;99.90;;;;;;5075762;28;20494;-74
2023/04/23 05:19:59;;;;;;;37.37;33.87;;;11.10;99.90;;;;;;5075826;28;20452;-75
2023/04/23 05:22:27;;;;;;;36.20;32.90;;;11.10;99.90;;;;;;5093966;28;20537;-74
2023/04/23 05:24:55;;;;;;;37.00;33.67;;;11.10;99.90;;;;;;5094182;28;20838;-74
2023/04/23 05:27:23;;;;;;;35.93;32.73;;;11.10;99.90;;;;;;5075977;28;20451;-74
2023/04/23 05:29:51;;;;;;;39.07;35.37;;;11.20;99.90;;;;;;5075577;28;20530;-74
2023/04/23 05:32:20;;;;;;;39.73;35.93;;;11.20;99.90;;;;;;5075830;28;20638;-74
2023/04/23 05:34:48;;;;;;;38.23;34.83;;;11.20;99.90;;;;;;5075620;28;20494;-75
2023/04/23 05:37:17;;;;;;;37.80;34.30;;;11.20;99.90;;;;;;5075376;28;21011;-74
2023/04/23 05:39:46;;;;;;;39.47;35.80;;;11.20;99.90;;;;;;5075745;28;20445;-74
2023/04/23 05:42:14;;;;;;;41.10;37.20;;;11.20;99.90;;;;;;5093708;28;20858;-75
2023/04/23 05:44:42;;;;;;;39.27;35.77;;;11.20;99.90;;;;;;5075664;28;20513;-75
2023/04/23 05:47:11;;;;;;;38.30;34.80;;;11.20;99.90;;;;;;5075310;28;20828;-75
2023/04/23 05:49:40;;;;;;;37.80;34.13;;;11.20;99.90;;;;;;5093351;28;20432;-75
2023/04/23 05:52:08;;;;;;;37.80;34.47;;;11.20;99.90;;;;;;5075940;28;20490;-74
2023/04/23 05:54:37;;;;;;;39.10;35.43;;;11.20;99.90;;;;;;5095178;28;20432;-75
2023/04/23 05:57:06;;;;;;;37.93;34.33;;;11.30;99.90;;;;;;5075747;28;20467;-74
2023/04/23 05:59:34;;;;;;;37.70;34.33;;;11.30;99.90;;;;;;5093477;28;20429;-74
2023/04/23 06:02:03;;;;;;;39.70;36.10;;;11.30;99.90;;;;;;5075099;28;20479;-75
2023/04/23 06:04:31;;;;;;;38.83;34.97;;;11.30;99.90;;;;;;5074912;28;20454;-75
2023/04/23 06:06:59;;;;;;;40.27;36.47;;;11.40;99.90;;;;;;5093444;28;20436;-75
2023/04/23 06:09:28;;;;;;;38.23;34.73;;;11.30;99.90;;;;;;5075358;28;20816;-75
2023/04/23 06:11:57;;;;;;;37.50;33.97;;;11.40;99.90;;;;;;5075232;28;20515;-75
2023/04/23 06:14:25;;;;;;;38.13;34.70;;;11.40;99.90;;;;;;5075121;28;20452;-75
2023/04/23 06:16:53;;;;;;;37.67;34.30;;;11.60;99.90;;;;;;5074883;28;20547;-75
2023/04/23 06:19:23;;;;;;;38.83;35.13;;;11.70;99.90;;;;;;5075027;28;20493;-75
2023/04/23 06:21:52;;;;;;;36.40;33.10;;;11.80;99.90;;;;;;5075274;28;20466;-75
2023/04/23 06:24:20;;;;;;;39.90;36.20;;;12.00;99.90;;;;;;5075219;28;20481;-75
2023/04/23 06:26:48;;;;;;;36.60;33.27;;;12.10;99.90;;;;;;5074940;28;20444;-75
2023/04/23 06:29:21;;;;;;;39.30;35.87;;;12.30;99.90;;;;;;5079171;28;20489;-75
2023/04/23 06:32:03;;;;;;;42.80;38.50;;;12.30;99.90;;;;;;5079177;28;20456;-75
2023/04/23 06:34:31;;;;;;;38.33;34.43;;;12.40;99.90;;;;;;5079537;28;20954;-76
2023/04/23 06:37:00;;;;;;;37.07;33.70;;;12.50;99.90;;;;;;5079145;28;20468;-75
2023/04/23 06:39:28;;;;;;;37.30;33.70;;;12.60;99.90;;;;;;5097422;28;20437;-75
2023/04/23 06:41:56;;;;;;;36.23;32.93;;;12.80;99.90;;;;;;5078825;28;20811;-75
2023/04/23 06:44:58;;;;;;;39.20;35.30;;;13.00;99.90;;;;;;5059670;28;20426;-75
2023/04/23 06:47:26;;;;;;;38.97;35.10;;;13.00;99.90;;;;;;5097709;28;20515;-76
2023/04/23 06:49:54;;;;;;;40.60;36.80;;;13.00;99.90;;;;;;5079266;28;20815;-75
2023/04/23 06:52:22;;;;;;;39.17;35.37;;;13.00;99.90;;;;;;5097542;28;20448;-76
2023/04/23 06:54:50;;;;;;;39.40;35.57;;;13.20;99.90;;;;;;5078996;28;20843;-76
2023/04/23 06:57:19;;;;;;;37.47;33.70;;;13.40;99.90;;;;;;5079000;28;20490;-75
2023/04/23 06:59:47;;;;;;;42.03;37.90;;;13.50;99.90;;;;;;5078747;28;20969;-76
2023/04/23 07:02:18;;;;;;;38.50;34.70;;;13.60;99.90;;;;;;5078867;28;20482;-76
2023/04/23 07:04:46;;;;;;;40.03;36.13;;;13.60;99.90;;;;;;5078782;28;20539;-76
2023/04/23 07:07:15;;;;;;;41.07;37.13;;;13.50;99.90;;;;;;5097285;28;20459;-77
2023/04/23 07:09:43;;;;;;;43.00;38.73;;;13.60;99.90;;;;;;5095399;28;20965;-76
2023/04/23 07:12:11;;;;;;;42.23;37.90;;;13.80;99.90;;;;;;5078390;28;20831;-76
2023/04/23 07:14:40;;;;;;;40.70;36.70;;;14.00;99.90;;;;;;5078337;28;20554;-76
2023/04/23 07:17:09;;;;;;;40.70;36.80;;;14.20;99.90;;;;;;5078330;28;20471;-76
2023/04/23 07:19:39;;;;;;;40.13;36.40;;;14.40;99.90;;;;;;5096474;28;20436;-76
2023/04/23 07:22:07;;;;;;;39.20;35.50;;;14.60;99.90;;;;;;5078158;28;20448;-76
2023/04/23 07:24:35;;;;;;;39.17;35.13;;;14.90;99.90;;;;;;5078276;28;20458;-76
2023/04/23 07:27:04;;;;;;;39.70;35.80;;;15.10;99.90;;;;;;5078112;28;20444;-76
2023/04/23 07:29:32;;;;;;;40.63;36.93;;;15.30;99.90;;;;;;5096484;28;20440;-76
2023/04/23 07:32:00;;;;;;;37.50;33.80;;;15.40;99.90;;;;;;5077928;28;20462;-75
2023/04/23 07:34:28;;;;;;;38.90;35.13;;;15.60;99.90;;;;;;5077955;28;20502;-75
2023/04/23 07:36:58;;;;;;;38.67;34.93;;;15.70;99.90;;;;;;5077983;28;20422;-75
2023/04/23 07:39:26;;;;;;;39.07;35.30;;;15.80;99.90;;;;;;5076596;28;20419;-75
2023/04/23 07:41:55;;;;;;;37.37;33.77;;;15.90;99.90;;;;;;5077673;28;20423;-75
2023/04/23 07:44:23;;;;;;;37.57;34.00;;;16.00;99.90;;;;;;5096115;28;20942;-75
2023/04/23 07:46:52;;;;;;;37.93;34.37;;;16.20;99.90;;;;;;5095940;28;20798;-76
2023/04/23 07:49:20;;;;;;;36.50;32.97;;;16.30;99.90;;;;;;5077859;28;20432;-75
2023/04/23 07:51:48;;;;;;;37.33;33.83;;;16.30;99.90;;;;;;5096072;28;20472;-75
2023/04/23 07:54:17;;;;;;;36.67;33.10;;;16.30;99.90;;;;;;5077516;28;20451;-75
2023/04/23 07:56:46;;;;;;;38.93;35.13;;;16.40;99.90;;;;;;5077501;28;20422;-75
2023/04/23 07:59:14;;;;;;;38.97;35.27;;;16.50;99.90;;;;;;5077292;28;20439;-76
2023/04/23 08:01:42;;;;;;;37.63;33.97;;;16.60;99.90;;;;;;5077444;28;20452;-75
2023/04/23 08:04:12;;;;;;;34.83;31.50;;;16.70;99.90;;;;;;5095506;28;20490;-75
2023/04/23 08:06:41;;;;;;;36.03;32.63;;;16.70;99.90;;;;;;5077584;28;20429;-75
2023/04/23 08:09:09;;;;;;;37.67;34.07;;;16.70;99.90;;;;;;5095448;28;20403;-75
2023/04/23 08:11:39;;;;;;;35.60;32.20;;;16.70;99.90;;;;;;5095390;28;20471;-75
2023/04/23 08:14:07;;;;;;;35.47;32.07;;;16.70;99.90;;;;;;5077222;28;20518;-75
2023/04/23 08:16:36;;;;;;;38.20;34.50;;;16.80;99.90;;;;;;5095355;28;20443;-75
2023/04/23 08:19:06;;;;;;;36.27;32.77;;;16.90;99.90;;;;;;5077925;28;20533;-75
2023/04/23 08:21:35;;;;;;;34.93;31.50;;;17.00;99.90;;;;;;5096504;28;20432;-76
2023/04/23 08:24:04;;;;;;;34.10;30.80;;;17.20;99.90;;;;;;5077942;28;20478;-77
2023/04/23 08:26:32;;;;;;;33.40;29.97;;;17.30;99.90;;;;;;5077902;28;20491;-76
2023/04/23 08:29:02;;;;;;;31.20;28.20;;;17.40;99.90;;;;;;5078029;28;20820;-75
2023/04/23 08:31:30;;;;;;;29.87;27.00;;;17.50;99.90;;;;;;5077405;28;20858;-75
2023/04/23 08:33:58;;;;;;;30.50;27.33;;;17.60;99.90;;;;;;5077197;28;20468;-75
2023/04/23 08:36:28;;;;;;;33.37;30.20;;;17.70;99.90;;;;;;5076707;28;20415;-75
2023/04/23 08:38:56;;;;;;;31.30;28.30;;;17.80;99.90;;;;;;5094905;28;20875;-76
2023/04/23 08:41:31;;;;;;;29.77;26.93;;;17.90;99.90;;;;;;5076832;28;20954;-76
2023/04/23 08:44:07;;;;;;;30.80;27.83;;;18.00;99.90;;;;;;5094928;28;20562;-76
2023/04/23 08:46:37;;;;;;;30.90;27.90;;;18.10;99.90;;;;;;5076498;28;20440;-76
2023/04/23 08:49:07;;;;;;;32.70;29.50;;;18.20;99.90;;;;;;5076577;28;20952;-76
2023/04/23 08:51:38;;;;;;;31.80;28.87;;;18.30;99.90;;;;;;5076299;28;20432;-75
2023/04/23 08:54:10;;;;;;;31.17;28.27;;;18.40;99.90;;;;;;5076520;28;20522;-76
2023/04/23 08:56:39;;;;;;;30.00;27.30;;;18.50;99.90;;;;;;5095031;28;20417;-75
2023/04/23 08:59:08;;;;;;;31.90;28.90;;;18.50;99.90;;;;;;5076152;28;20460;-76
2023/04/23 09:01:37;;;;;;;30.87;27.80;;;18.60;99.90;;;;;;5076142;28;20785;-75
2023/04/23 09:04:06;;;;;;;31.53;28.30;;;18.70;99.90;;;;;;5094984;28;20471;-76
2023/04/23 09:06:34;;;;;;;31.47;28.43;;;18.80;99.90;;;;;;5076200;28;20440;-76
2023/04/23 09:09:06;;;;;;;31.60;28.70;;;18.90;99.90;;;;;;5094148;28;20464;-75
2023/04/23 09:11:37;;;;;;;33.17;30.07;;;18.90;99.90;;;;;;5076133;28;20947;-75
2023/04/23 09:14:05;;;;;;;33.37;30.20;;;18.90;99.90;;;;;;5076002;28;21005;-75
2023/04/23 09:16:35;;;;;;;32.30;29.23;;;18.90;99.90;;;;;;5075913;28;20868;-75
2023/04/23 09:19:04;;;;;;;31.30;28.27;;;19.00;99.90;;;;;;5075826;28;20962;-75
2023/04/23 09:21:32;;;;;;;30.93;27.97;;;19.10;99.90;;;;;;5075783;28;20510;-75
2023/04/23 09:24:03;;;;;;;31.63;28.73;;;19.10;99.90;;;;;;5093799;28;20456;-75
2023/04/23 09:26:32;;;;;;;31.10;27.93;;;19.20;99.90;;;;;;5094758;28;20590;-75
2023/04/23 09:29:00;;;;;;;29.60;26.70;;;19.30;99.90;;;;;;5094001;28;20821;-75
2023/04/23 09:31:28;;;;;;;30.00;26.97;;;19.40;99.90;;;;;;5075612;28;20947;-75
2023/04/23 09:33:58;;;;;;;28.97;26.10;;;19.40;99.90;;;;;;5075359;28;21017;-75
2023/04/23 09:36:27;;;;;;;30.37;27.47;;;19.50;99.90;;;;;;5075485;28;20436;-75
2023/04/23 09:38:57;;;;;;;29.23;26.47;;;19.50;99.90;;;;;;5075483;28;20460;-75
2023/04/23 09:41:27;;;;;;;28.60;25.73;;;19.50;99.90;;;;;;5075419;28;20447;-75
2023/04/23 09:43:56;;;;;;;28.00;25.30;;;19.60;99.90;;;;;;5075400;28;20475;-75
2023/04/23 09:46:35;;;;;;;26.90;24.33;;;19.60;99.90;;;;;;5075673;28;20939;-75
2023/04/23 09:49:06;;;;;;;28.47;25.77;;;19.70;99.90;;;;;;5092256;28;20667;-75
2023/04/23 09:51:37;;;;;;;27.60;25.20;;;19.80;99.90;;;;;;5075296;28;20448;-75
2023/04/23 09:54:11;;;;;;;26.67;24.03;;;19.90;99.90;;;;;;5093385;28;20456;-75
2023/04/23 09:56:39;;;;;;;25.63;23.17;;;19.90;99.90;;;;;;5093625;28;20430;-75
2023/04/23 09:59:21;;;;;;;25.47;23.13;;;20.00;99.90;;;;;;5093637;28;20467;-75
2023/04/23 10:02:02;;;;;;;25.30;22.97;;;20.10;99.90;;;;;;5074329;28;20448;-75
2023/04/23 10:04:33;;;;;;;24.00;21.80;;;20.10;99.90;;;;;;5093252;28;20448;-75
2023/04/23 10:07:03;;;;;;;22.73;20.63;;;20.20;99.90;;;;;;5093782;28;20534;-75
2023/04/23 10:09:47;;;;;;;22.87;20.53;;;20.20;99.90;;;;;;5075118;28;20436;-75
2023/04/23 10:12:15;;;;;;;22.27;20.20;;;20.20;99.90;;;;;;5075135;28;20464;-75
2023/04/23 10:15:04;;;;;;;20.30;18.47;;;20.20;99.90;;;;;;5074922;28;20531;-75
2023/04/23 10:17:34;;;;;;;21.43;19.43;;;20.20;99.90;;;;;;5074941;28;20947;-75
2023/04/23 10:20:06;;;;;;;20.70;18.80;;;20.10;99.90;;;;;;5075132;28;20464;-75
2023/04/23 10:22:35;;;;;;;21.53;19.53;;;20.10;99.90;;;;;;5093357;28;20478;-75
2023/04/23 10:25:07;;;;;;;22.50;20.40;;;20.20;99.90;;;;;;5093419;28;20448;-75
2023/04/23 10:27:39;;;;;;;20.87;18.83;;;20.20;99.90;;;;;;5075747;28;20779;-74
2023/04/23 10:30:21;;;;;;;22.40;20.40;;;20.30;99.90;;;;;;5093683;28;20416;-75
2023/04/23 10:32:50;;;;;;;20.97;18.97;;;20.40;99.90;;;;;;5093223;28;20527;-74
2023/04/23 10:35:20;;;;;;;21.33;19.43;;;20.40;99.90;;;;;;5075016;28;20448;-75
2023/04/23 10:37:49;;;;;;;20.77;18.97;;;20.50;99.90;;;;;;5074710;28;20887;-75
2023/04/23 10:40:21;;;;;;;22.10;20.10;;;20.60;99.90;;;;;;5074712;28;20896;-75
2023/04/23 10:42:50;;;;;;;20.03;18.13;;;20.70;99.90;;;;;;5074579;28;20460;-75
2023/04/23 10:45:21;;;;;;;21.10;19.10;;;20.70;99.90;;;;;;5074703;28;20496;-75
2023/04/23 10:47:54;;;;;;;20.53;18.53;;;20.70;99.90;;;;;;5093066;28;20416;-75
2023/04/23 10:50:26;;;;;;;21.60;19.50;;;20.80;99.90;;;;;;5074731;28;20447;-75
2023/04/23 10:52:56;;;;;;;20.73;18.80;;;20.70;99.80;;;;;;5074692;28;20496;-74
2023/04/23 10:55:26;;;;;;;23.53;21.27;;;20.70;99.80;;;;;;5074850;28;20448;-74
2023/04/23 10:58:00;;;;;;;22.77;20.57;;;20.70;99.80;;;;;;5093080;28;20436;-75
2023/04/23 11:00:42;;;;;;;21.80;19.70;;;20.70;99.60;;;;;;5092951;28;20485;-76
2023/04/23 11:03:31;;;;;;;22.20;20.20;;;20.80;99.50;;;;;;5074499;28;20890;-74
2023/04/23 11:06:03;;;;;;;18.33;16.63;;;20.80;99.30;;;;;;5074651;28;20962;-75
2023/04/23 11:08:32;;;;;;;24.87;22.70;;;20.90;99.40;;;;;;5074582;28;20432;-75
2023/04/23 11:11:01;;;;;;;22.73;20.53;;;20.90;99.20;;;;;;5092607;28;20779;-75
2023/04/23 11:13:30;;;;;;;20.73;18.73;;;20.80;98.90;;;;;;5075043;28;20468;-75
2023/04/23 11:16:15;;;;;;;20.70;18.67;;;20.80;98.80;;;;;;5078146;28;20951;-74
2023/04/23 11:19:02;;;;;;;23.10;21.00;;;20.80;98.90;;;;;;5096296;28;20784;-74
2023/04/23 11:22:03;;;;;;;21.93;19.93;;;20.90;98.80;;;;;;5078167;28;20436;-74
2023/04/23 11:24:33;;;;;;;21.30;19.33;;;20.90;98.70;;;;;;5096687;28;20773;-74
2023/04/23 11:27:01;;;;;;;23.20;21.17;;;21.00;98.70;;;;;;5096236;28;20930;-74
2023/04/23 11:29:30;;;;;;;22.50;20.50;;;21.00;98.80;;;;;;5096574;28;20439;-74
2023/04/23 11:31:58;;;;;;;19.73;17.80;;;21.00;98.70;;;;;;5078025;28;20908;-75
2023/04/23 11:34:32;;;;;;;22.60;20.50;;;20.90;98.60;;;;;;5096753;28;20439;-74
2023/04/23 11:37:02;;;;;;;23.53;21.23;;;20.90;98.50;;;;;;5078351;28;20505;-74
2023/04/23 11:39:32;;;;;;;21.83;19.87;;;20.80;98.30;;;;;;5096041;28;20455;-74
2023/04/23 11:42:05;;;;;;;23.00;20.87;;;20.80;98.40;;;;;;5095982;28;20518;-75
2023/04/23 11:44:33;;;;;;;20.50;18.40;;;20.70;98.30;;;;;;5077924;28;20444;-74
2023/04/23 11:47:02;;;;;;;20.43;18.33;;;20.60;98.30;;;;;;5077228;28;20444;-73
2023/04/23 11:49:30;;;;;;;19.40;17.60;;;20.60;98.30;;;;;;5095478;28;20519;-74
2023/04/23 11:52:01;;;;;;;17.93;16.37;;;20.60;98.50;;;;;;5095443;28;20501;-74
2023/04/23 11:54:31;;;;;;;14.30;13.00;;;20.70;98.60;;;;;;5077181;28;20863;-74
2023/04/23 11:56:59;;;;;;;12.90;11.70;;;20.80;98.50;;;;;;5095535;28;20428;-74
2023/04/23 11:59:28;;;;;;;12.70;11.50;;;21.00;98.40;;;;;;5077648;28;20444;-74
2023/04/23 12:01:57;;;;;;;12.70;11.40;;;21.00;98.20;;;;;;5095271;28;20472;-74
2023/04/23 12:04:27;;;;;;;13.50;12.30;;;21.00;97.90;;;;;;5077191;28;20491;-75
2023/04/23 12:06:56;;;;;;;13.40;12.20;;;21.00;97.80;;;;;;5076849;28;20804;-75
2023/04/23 12:09:27;;;;;;;14.00;12.57;;;20.90;97.60;;;;;;5094035;28;20598;-75
2023/04/23 12:11:58;;;;;;;11.87;10.77;;;20.90;97.60;;;;;;5076808;28;20494;-75
2023/04/23 12:14:28;;;;;;;11.67;10.57;;;20.80;97.50;;;;;;5095382;28;20420;-75
2023/04/23 12:16:58;;;;;;;12.50;11.40;;;20.70;97.40;;;;;;5076843;28;20424;-75
2023/04/23 12:19:28;;;;;;;12.00;10.80;;;20.70;97.50;;;;;;5095321;28;20927;-76
2023/04/23 12:21:57;;;;;;;12.47;9.57;;;20.70;97.60;;;;;;5076741;28;20445;-75
2023/04/23 12:24:27;;;;;;;10.67;9.57;;;20.80;97.60;;;;;;5093518;28;20799;-75
2023/04/23 12:26:59;;;;;;;9.60;8.70;;;20.90;97.70;;;;;;5076661;28;20859;-75
2023/04/23 12:29:30;;;;;;;8.00;7.20;;;20.90;97.40;;;;;;5076593;28;20459;-75
2023/04/23 12:31:59;;;;;;;10.40;9.00;;;21.00;97.30;;;;;;5094787;28;20888;-75
2023/04/23 12:34:28;;;;;;;8.80;8.00;;;21.00;97.10;;;;;;5076519;28;20443;-75
2023/04/23 12:36:56;;;;;;;9.20;8.30;;;21.00;97.10;;;;;;5093580;28;20455;-75
2023/04/23 12:39:28;;;;;;;9.63;8.70;;;21.10;97.00;;;;;;5094449;28;20432;-75
2023/04/23 12:42:01;;;;;;;8.87;7.80;;;21.10;97.10;;;;;;5094233;28;20458;-75